الصفحة الرئيسية
METAR-TAF:

METAR-TAF

مطار :

مطار تشونغتشينغ جيانغبى الدولي

تشونغتشينغ, جمهورية الصين الشعبية

دائرة عرض: 29-31N, خط طول: 106-29E, ارتفاع: 351 متر

مراقبة الطقس الحالي

تاريخ ووقت الإصدار 18 دقيقة قبل الساعة 23:00UTC
ريح 2 عقدةمن اتجاهات متغيرة
درجة الحرارة 14°درجة مئوية
الرطوبة 94%
ضغط 1020 hPa
الرؤية 10 كم أو أكثر
غيوم متفرقة على ارتفاع 2600 قدم

METAR: ZUCK 202300Z VRB01MPS 9999 SCT026 14/13 Q1020 NOSIG

زمن: 07:18 (23:18 UTC)

توقعات

تاريخ ووقت الإصدار 8ساعات و 13 دقيقة قبل الساعة 15:05UTC
التوقعات صالحة من20 الساعة 18 UTC إلى 21 الساعة 18 UTC
ريح 8 عقدة من الشمال/الشمال الشرقي
الرؤية: 4000 متر
غيوم قليلة على ارتفاع 1200 قدم
غيوم متفرقة على ارتفاع 4000 قدم
مطر خفيف, غشاء
أصبح
من 21 الساعة 01 UTC إلى 21 الساعة 02 UTC
الرؤية: 5000 متر
غيوم قليلة على ارتفاع 1600 قدم
غيوم متفرقة على ارتفاع 3000 قدم
غشاء

TAF: ZUCK 201505Z 2018/2118 03004MPS 4000 -RA BR FEW012 SCT040 TX17/2107Z TN13/2022Z BECMG 2101/2102 5000 BR FEW016 SCT030

أرصاد الطقس والتوقعات من أكثر من 4000 مطار (تقارير الطقس للمطار METAR والتنبؤ بالطقس بالمطارTAF).

المحطات المتاحة هي النقط الصفراء والحمراء على الخريطة.

حرك المؤشر فوق النقطة لمعرفة اسم المحطة.

ثم انقر لمعرفة أرصاد وتوقعات الطقس.

لتغيير الخارطة: اضغط على الأزرار الخضراء مع رمز الصليب الأسود للتكبير. على الزر الأخضر مع شرطة للتصغير، أو على الأسهم الخضراء للخرائط المجاورة.


METAR-TAF: